Time;durP1;ratioP1;P1;durP2;ratioP2;P2;SDS_P1;SDS_P2;PMS_P1;PMS_P2;Temp;Humidity;BMP_temperature;BMP_pressure;BME280_temperature;BME280_humidity;BME280_pressure;Samples;Min_cycle;Max_cycle;Signal;HPM_P1;HPM_P2
2022/04/15 00:00:14;;;;;;;10.25;5.88;;;10.50;99.90;;;;;;5056171;28;20239;-74
2022/04/15 00:02:41;;;;;;;6.30;5.10;;;10.40;99.90;;;;;;5067483;28;20279;-74
2022/04/15 00:07:50;;;;;;;6.28;5.18;;;10.40;99.90;;;;;;5058602;28;20199;-72
2022/04/15 00:10:18;;;;;;;6.70;4.57;;;10.30;99.90;;;;;;5061740;28;20626;-71
2022/04/15 00:12:45;;;;;;;6.25;4.63;;;10.30;99.90;;;;;;5059399;28;20615;-73
2022/04/15 00:15:12;;;;;;;9.63;4.80;;;10.30;99.90;;;;;;5065001;28;20807;-74
2022/04/15 00:17:40;;;;;;;7.72;5.32;;;10.20;99.90;;;;;;5054921;28;20278;-74
2022/04/15 00:20:08;;;;;;;6.93;4.65;;;10.20;99.90;;;;;;5059914;28;20207;-73
2022/04/15 00:22:35;;;;;;;7.13;5.80;;;10.30;99.90;;;;;;5062565;28;20642;-75
2022/04/15 00:25:01;;;;;;;5.93;4.35;;;10.30;99.90;;;;;;5060390;28;20677;-73
2022/04/15 00:27:30;;;;;;;5.43;4.82;;;10.30;99.90;;;;;;5056743;28;20573;-73
2022/04/15 00:29:57;;;;;;;7.15;4.75;;;10.30;99.90;;;;;;5063569;28;20207;-75
2022/04/15 00:32:23;;;;;;;6.50;5.15;;;10.30;99.90;;;;;;5057869;28;20203;-74
2022/04/15 00:34:50;;;;;;;9.23;6.10;;;10.30;99.90;;;;;;5055704;28;20251;-74
2022/04/15 00:37:17;;;;;;;7.03;6.00;;;10.30;99.90;;;;;;5071276;28;20280;-76
2022/04/15 00:39:45;;;;;;;11.32;5.55;;;10.30;99.90;;;;;;5058854;28;20287;-76
2022/04/15 00:42:13;;;;;;;9.95;5.28;;;10.30;99.90;;;;;;5061372;28;20285;-75
2022/04/15 00:44:42;;;;;;;6.40;5.15;;;10.40;99.90;;;;;;5058837;28;20364;-74
2022/04/15 00:47:13;;;;;;;5.72;4.95;;;10.40;99.90;;;;;;5065070;28;20214;-78
2022/04/15 00:49:39;;;;;;;6.07;5.28;;;10.40;99.90;;;;;;5067252;28;20294;-76
2022/04/15 00:52:08;;;;;;;5.88;4.85;;;10.40;99.90;;;;;;5056999;28;20210;-79
2022/04/15 00:54:39;;;;;;;10.30;5.55;;;10.40;99.90;;;;;;5062500;28;20302;-78
2022/04/15 00:57:09;;;;;;;6.75;5.57;;;10.30;99.90;;;;;;5060757;28;20230;-77
2022/04/15 00:59:41;;;;;;;8.98;5.93;;;10.30;99.90;;;;;;5055071;28;20276;-75
2022/04/15 01:02:10;;;;;;;7.78;5.85;;;10.30;99.90;;;;;;5056354;28;20191;-74
2022/04/15 01:04:42;;;;;;;11.70;5.88;;;10.30;99.90;;;;;;5067252;28;20234;-76
2022/04/15 01:07:10;;;;;;;8.48;5.82;;;10.30;99.90;;;;;;5056830;28;20234;-78
2022/04/15 01:09:43;;;;;;;11.65;5.88;;;10.30;99.90;;;;;;5062421;28;20285;-75
2022/04/15 01:12:11;;;;;;;6.72;5.28;;;10.30;99.90;;;;;;5057663;28;20576;-76
2022/04/15 01:14:42;;;;;;;6.72;4.70;;;10.30;99.90;;;;;;5054622;28;20310;-75
2022/04/15 01:17:08;;;;;;;10.20;5.80;;;10.20;99.90;;;;;;5057081;28;20294;-74
2022/04/15 01:19:35;;;;;;;10.15;6.70;;;10.30;99.90;;;;;;5060437;28;20235;-75
2022/04/15 01:22:04;;;;;;;10.65;7.65;;;10.30;99.90;;;;;;5062450;28;20207;-73
2022/04/15 01:24:32;;;;;;;9.48;6.30;;;10.30;99.90;;;;;;5062711;28;20231;-75
2022/04/15 01:26:59;;;;;;;8.32;6.32;;;10.30;99.90;;;;;;5067319;28;20213;-74
2022/04/15 01:29:27;;;;;;;11.20;7.07;;;10.30;99.90;;;;;;5054730;28;20200;-75
2022/04/15 01:31:54;;;;;;;10.63;6.20;;;10.10;99.90;;;;;;5064784;28;20211;-76
2022/04/15 01:34:21;;;;;;;10.40;7.15;;;10.20;99.90;;;;;;5061275;28;20223;-75
2022/04/15 01:36:48;;;;;;;12.18;6.13;;;10.10;99.90;;;;;;5054419;28;20295;-75
2022/04/15 01:39:16;;;;;;;8.75;7.18;;;10.00;99.90;;;;;;5068224;28;20624;-72
2022/04/15 01:41:45;;;;;;;13.63;7.30;;;10.00;99.90;;;;;;5053010;28;20196;-73
2022/04/15 01:44:15;;;;;;;11.43;8.20;;;10.00;99.90;;;;;;5054211;28;20227;-72
2022/04/15 01:46:43;;;;;;;13.60;9.45;;;10.00;99.90;;;;;;5051623;28;20200;-73
2022/04/15 01:49:10;;;;;;;13.43;11.00;;;10.00;99.90;;;;;;5058473;28;20219;-73
2022/04/15 01:51:38;;;;;;;12.20;9.77;;;10.00;99.90;;;;;;5064045;28;20203;-74
2022/04/15 01:54:05;;;;;;;16.52;11.10;;;10.00;99.90;;;;;;5059661;28;20741;-73
2022/04/15 01:56:32;;;;;;;15.10;11.75;;;10.10;99.90;;;;;;5066808;28;20199;-73
2022/04/15 01:59:00;;;;;;;16.38;10.07;;;10.00;99.90;;;;;;5061704;28;20211;-74
2022/04/15 02:01:27;;;;;;;12.50;9.55;;;10.00;99.90;;;;;;5057671;28;20579;-73
2022/04/15 02:03:54;;;;;;;16.52;10.38;;;10.00;99.90;;;;;;5056689;28;20313;-71
2022/04/15 02:06:21;;;;;;;13.25;10.05;;;10.00;99.90;;;;;;5068038;28;20242;-74
2022/04/15 02:08:48;;;;;;;18.25;11.13;;;9.90;99.90;;;;;;5053724;28;20200;-74
2022/04/15 02:11:15;;;;;;;11.80;7.93;;;10.00;99.90;;;;;;5052388;28;20764;-74
2022/04/15 02:13:42;;;;;;;11.60;8.13;;;10.00;99.90;;;;;;5057068;28;20230;-73
2022/04/15 02:16:10;;;;;;;8.85;7.20;;;10.00;99.90;;;;;;5053111;28;20203;-76
2022/04/15 02:18:37;;;;;;;10.52;8.52;;;9.90;99.90;;;;;;5060848;28;20213;-74
2022/04/15 02:21:05;;;;;;;9.65;7.75;;;10.00;99.90;;;;;;5064899;28;20201;-72
2022/04/15 02:23:32;;;;;;;8.95;8.10;;;10.00;99.90;;;;;;5062108;28;20285;-76
2022/04/15 02:25:58;;;;;;;8.98;7.43;;;10.00;99.90;;;;;;5064458;28;20237;-74
2022/04/15 02:28:26;;;;;;;8.40;6.65;;;10.00;99.90;;;;;;5060415;28;20227;-74
2022/04/15 02:30:53;;;;;;;8.35;6.45;;;10.00;99.90;;;;;;5065284;28;20587;-74
2022/04/15 02:33:22;;;;;;;7.90;7.20;;;10.00;99.90;;;;;;5058645;28;20630;-73
2022/04/15 02:35:49;;;;;;;9.45;6.70;;;10.10;99.90;;;;;;5059499;28;20231;-75
2022/04/15 02:38:16;;;;;;;8.27;7.07;;;9.90;99.90;;;;;;5052962;28;20601;-75
2022/04/15 02:40:44;;;;;;;8.65;7.32;;;9.90;99.90;;;;;;5061705;28;20204;-72
2022/04/15 02:43:11;;;;;;;11.13;7.60;;;9.90;99.90;;;;;;5056008;28;20633;-73
2022/04/15 02:45:38;;;;;;;11.10;7.88;;;9.80;99.90;;;;;;5054324;28;20234;-73
2022/04/15 02:48:06;;;;;;;11.68;7.93;;;9.80;99.90;;;;;;5058978;28;20278;-73
2022/04/15 02:50:35;;;;;;;10.07;8.68;;;9.80;99.90;;;;;;5054913;28;20214;-75
2022/04/15 02:53:02;;;;;;;10.98;8.68;;;9.70;99.90;;;;;;5066502;28;20207;-73
2022/04/15 02:55:29;;;;;;;11.75;8.15;;;9.70;99.90;;;;;;5066976;28;20222;-72
2022/04/15 02:57:56;;;;;;;10.75;8.05;;;9.70;99.90;;;;;;5063737;28;20286;-72
2022/04/15 03:00:24;;;;;;;15.75;7.93;;;9.60;99.90;;;;;;5075884;28;20217;-74
2022/04/15 03:02:51;;;;;;;12.48;8.70;;;9.60;99.90;;;;;;5065818;28;20212;-74
2022/04/15 03:05:18;;;;;;;10.30;7.30;;;9.60;99.90;;;;;;5060315;28;20310;-73
2022/04/15 03:07:47;;;;;;;8.90;7.85;;;9.50;99.90;;;;;;5059541;28;20199;-72
2022/04/15 03:10:14;;;;;;;9.25;7.20;;;9.60;99.90;;;;;;5068968;28;20574;-74
2022/04/15 03:12:42;;;;;;;8.88;7.57;;;9.60;99.90;;;;;;5065096;28;20234;-74
2022/04/15 03:15:10;;;;;;;9.00;8.07;;;9.60;99.90;;;;;;5064439;28;20219;-74
2022/04/15 03:17:38;;;;;;;8.40;7.57;;;9.60;99.90;;;;;;5053832;28;20297;-74
2022/04/15 03:20:06;;;;;;;9.23;8.27;;;9.60;99.90;;;;;;5057523;28;20206;-74
2022/04/15 03:22:36;;;;;;;11.77;7.35;;;9.60;99.90;;;;;;5064850;28;20269;-73
2022/04/15 03:25:05;;;;;;;13.82;8.80;;;9.60;99.90;;;;;;5060373;28;20226;-73
2022/04/15 03:27:32;;;;;;;12.93;8.80;;;9.60;99.90;;;;;;5059096;28;20312;-74
2022/04/15 03:29:59;;;;;;;9.73;8.48;;;9.60;99.90;;;;;;5063748;28;20282;-73
2022/04/15 03:32:26;;;;;;;8.65;7.28;;;9.50;99.90;;;;;;5066436;28;20211;-73
2022/04/15 03:34:53;;;;;;;9.88;6.53;;;9.50;99.90;;;;;;5061746;28;20230;-72
2022/04/15 03:37:22;;;;;;;12.32;7.47;;;9.50;99.90;;;;;;5060158;28;20209;-73
2022/04/15 03:39:49;;;;;;;9.93;7.15;;;9.50;99.90;;;;;;5065342;28;20289;-72
2022/04/15 03:42:17;;;;;;;11.63;7.60;;;9.50;99.90;;;;;;5059882;28;20278;-74
2022/04/15 03:44:44;;;;;;;10.65;7.72;;;9.60;99.90;;;;;;5064568;28;20347;-73
2022/04/15 03:47:11;;;;;;;10.98;6.85;;;9.60;99.90;;;;;;5059844;28;20250;-74
2022/04/15 03:49:38;;;;;;;13.27;7.90;;;9.60;99.90;;;;;;5071285;28;20287;-73
2022/04/15 03:52:06;;;;;;;8.35;6.90;;;9.50;99.90;;;;;;5061330;28;20238;-72
2022/04/15 03:54:33;;;;;;;7.50;6.07;;;9.50;99.90;;;;;;5059139;28;20233;-73
2022/04/15 03:57:00;;;;;;;10.50;7.30;;;9.50;99.90;;;;;;5058825;28;20283;-74
2022/04/15 03:59:28;;;;;;;10.63;7.05;;;9.50;99.90;;;;;;5062968;28;20245;-74
2022/04/15 04:01:55;;;;;;;7.95;6.47;;;9.50;99.90;;;;;;5059902;28;20304;-74
2022/04/15 04:04:22;;;;;;;8.52;7.00;;;9.50;99.90;;;;;;5055382;28;20269;-74
2022/04/15 04:06:49;;;;;;;8.27;6.80;;;9.50;99.90;;;;;;5058844;28;20218;-75
2022/04/15 04:09:16;;;;;;;8.75;5.57;;;9.50;99.90;;;;;;5063847;28;20249;-75
2022/04/15 04:11:43;;;;;;;14.40;6.13;;;9.60;99.90;;;;;;5060333;28;20544;-75
2022/04/15 04:14:10;;;;;;;8.38;6.63;;;9.60;99.90;;;;;;5062122;28;20314;-76
2022/04/15 04:16:39;;;;;;;10.27;7.10;;;9.60;99.90;;;;;;5066182;28;20571;-74
2022/04/15 04:19:06;;;;;;;7.03;5.95;;;9.60;99.90;;;;;;5066138;28;20660;-75
2022/04/15 04:21:36;;;;;;;8.40;6.82;;;9.50;99.90;;;;;;5057462;28;20734;-74
2022/04/15 04:24:03;;;;;;;7.30;6.60;;;9.40;99.90;;;;;;5059606;28;20558;-74
2022/04/15 04:26:31;;;;;;;10.50;6.93;;;9.50;99.90;;;;;;5054925;28;20230;-75
2022/04/15 04:28:58;;;;;;;7.00;5.20;;;9.60;99.90;;;;;;5056453;28;20292;-78
2022/04/15 04:31:25;;;;;;;13.68;6.80;;;9.60;99.90;;;;;;5059648;28;20298;-79
2022/04/15 04:33:54;;;;;;;12.43;6.57;;;9.50;99.90;;;;;;5068434;28;20291;-79
2022/04/15 04:36:20;;;;;;;17.25;6.50;;;9.60;99.90;;;;;;5056455;28;20191;-77
2022/04/15 04:38:47;;;;;;;9.60;6.88;;;9.60;99.90;;;;;;5063086;28;20203;-76
2022/04/15 04:41:14;;;;;;;14.02;6.63;;;9.60;99.90;;;;;;5059935;28;20630;-76
2022/04/15 04:43:41;;;;;;;9.95;6.57;;;9.60;99.90;;;;;;5052317;28;20208;-76
2022/04/15 04:46:09;;;;;;;9.35;7.15;;;9.60;99.90;;;;;;5064286;28;20279;-78
2022/04/15 04:48:37;;;;;;;12.23;8.30;;;9.60;99.90;;;;;;5059360;28;20203;-79
2022/04/15 04:51:05;;;;;;;9.48;7.65;;;9.70;99.90;;;;;;5056137;28;20203;-80
2022/04/15 04:53:32;;;;;;;11.38;9.75;;;9.60;99.90;;;;;;5062631;28;20230;-78
2022/04/15 04:55:59;;;;;;;9.85;8.50;;;9.70;99.90;;;;;;5062366;28;20198;-78
2022/04/15 04:58:26;;;;;;;9.75;8.38;;;9.70;99.90;;;;;;5074705;28;20230;-77
2022/04/15 05:00:53;;;;;;;11.07;8.70;;;9.80;99.90;;;;;;5068097;28;20552;-77
2022/04/15 05:03:20;;;;;;;10.48;8.65;;;9.80;99.90;;;;;;5068563;28;20199;-78
2022/04/15 05:05:48;;;;;;;14.82;11.15;;;9.80;99.90;;;;;;5071038;28;20245;-78
2022/04/15 05:08:16;;;;;;;19.02;12.30;;;9.80;99.90;;;;;;5065869;28;20234;-75
2022/04/15 05:10:43;;;;;;;11.25;9.98;;;9.70;99.90;;;;;;5064064;28;20234;-76
2022/04/15 05:13:10;;;;;;;18.58;12.50;;;9.80;99.90;;;;;;5058394;28;20200;-76
2022/04/15 05:15:37;;;;;;;14.88;10.07;;;9.70;99.90;;;;;;5061077;28;20246;-77
2022/04/15 05:18:04;;;;;;;14.65;11.00;;;9.80;99.90;;;;;;5055142;28;20274;-76
2022/04/15 05:20:32;;;;;;;10.77;9.60;;;9.90;99.90;;;;;;5051074;28;20287;-76
2022/04/15 05:22:59;;;;;;;23.35;12.10;;;9.80;99.90;;;;;;5050235;28;20200;-74
2022/04/15 05:25:28;;;;;;;18.80;11.68;;;9.80;99.90;;;;;;5057212;28;20326;-72
2022/04/15 05:27:58;;;;;;;18.27;11.57;;;9.80;99.90;;;;;;5059884;28;20701;-75
2022/04/15 05:30:25;;;;;;;16.13;11.57;;;9.80;99.90;;;;;;5049586;28;20212;-73
2022/04/15 05:32:52;;;;;;;16.40;11.20;;;9.80;99.90;;;;;;5061375;28;20609;-74
2022/04/15 05:35:20;;;;;;;13.23;11.25;;;9.80;99.90;;;;;;5049400;28;20226;-75
2022/04/15 05:37:47;;;;;;;18.98;12.60;;;9.90;99.90;;;;;;5045572;28;20294;-74
2022/04/15 05:40:14;;;;;;;16.35;11.77;;;9.90;99.90;;;;;;5062261;28;20306;-74
2022/04/15 05:42:42;;;;;;;16.30;13.40;;;9.90;99.90;;;;;;5058499;28;20658;-74
2022/04/15 05:45:10;;;;;;;18.00;13.70;;;9.90;99.90;;;;;;5057215;28;20226;-74
2022/04/15 05:47:38;;;;;;;17.35;12.32;;;9.90;99.90;;;;;;5060839;28;20204;-74
2022/04/15 05:50:05;;;;;;;16.45;11.98;;;9.90;99.90;;;;;;5059493;28;20268;-74
2022/04/15 05:52:32;;;;;;;24.45;14.48;;;9.90;99.90;;;;;;5058228;28;20622;-76
2022/04/15 05:54:59;;;;;;;20.35;13.52;;;9.90;99.90;;;;;;5047545;28;20327;-73
2022/04/15 05:57:26;;;;;;;22.08;13.50;;;9.90;99.90;;;;;;5043239;28;20286;-75
2022/04/15 05:59:54;;;;;;;17.98;13.60;;;9.90;99.90;;;;;;5055986;28;20210;-74
2022/04/15 06:02:21;;;;;;;18.58;13.25;;;10.00;99.90;;;;;;5057333;28;20653;-73
2022/04/15 06:04:49;;;;;;;19.30;14.32;;;9.90;99.90;;;;;;5057453;28;20258;-74
2022/04/15 06:07:15;;;;;;;26.35;14.40;;;9.90;99.90;;;;;;5055331;28;20234;-74
2022/04/15 06:09:45;;;;;;;16.95;12.80;;;9.80;99.90;;;;;;5053106;28;20285;-74
2022/04/15 06:12:12;;;;;;;23.95;13.68;;;9.70;99.90;;;;;;5069454;28;20203;-75
2022/04/15 06:14:41;;;;;;;18.08;13.52;;;9.70;99.90;;;;;;5053236;28;20323;-76
2022/04/15 06:17:09;;;;;;;18.40;13.30;;;9.80;99.90;;;;;;5047115;28;20194;-75
2022/04/15 06:19:38;;;;;;;20.75;13.02;;;9.70;99.90;;;;;;5046970;28;20760;-74
2022/04/15 06:22:05;;;;;;;23.70;16.13;;;9.70;99.90;;;;;;5047656;28;20704;-74
2022/04/15 06:24:33;;;;;;;25.48;15.50;;;9.80;99.90;;;;;;5058922;28;20227;-74
2022/04/15 06:27:23;;;;;;;28.55;17.08;;;9.80;99.90;;;;;;5055965;28;20238;-75
2022/04/15 06:29:50;;;;;;;22.30;15.73;;;9.80;99.90;;;;;;5050576;28;20279;-74
2022/04/15 06:32:18;;;;;;;24.00;14.90;;;9.70;99.90;;;;;;5046384;28;20278;-76
2022/04/15 06:34:45;;;;;;;20.98;14.48;;;9.70;99.90;;;;;;5047775;28;20242;-74
2022/04/15 06:37:12;;;;;;;21.98;14.50;;;9.70;99.90;;;;;;5045000;28;20195;-75
2022/04/15 06:39:38;;;;;;;26.63;17.20;;;9.80;99.90;;;;;;5053467;28;20203;-76
2022/04/15 06:42:06;;;;;;;21.10;14.45;;;9.80;99.90;;;;;;5058163;28;20206;-75
2022/04/15 06:44:36;;;;;;;20.38;13.65;;;9.70;99.90;;;;;;5062586;28;20224;-76
2022/04/15 06:47:04;;;;;;;21.90;14.30;;;9.80;99.90;;;;;;5052672;28;20661;-79
2022/04/15 06:49:32;;;;;;;21.00;12.95;;;9.80;99.90;;;;;;5055844;28;20721;-78
2022/04/15 06:51:59;;;;;;;19.67;13.90;;;9.80;99.90;;;;;;5062804;28;20281;-75
2022/04/15 06:54:26;;;;;;;22.63;11.68;;;9.70;99.90;;;;;;5052526;28;20306;-77
2022/04/15 06:56:53;;;;;;;17.05;12.35;;;9.70;99.90;;;;;;5062482;28;20291;-75
2022/04/15 06:59:21;;;;;;;16.55;12.07;;;9.90;99.90;;;;;;5061637;28;20200;-77
2022/04/15 07:01:47;;;;;;;13.73;10.32;;;9.80;99.90;;;;;;5067765;28;20540;-77
2022/04/15 07:04:14;;;;;;;17.13;10.65;;;9.80;99.90;;;;;;5054091;28;20231;-77
2022/04/15 07:06:43;;;;;;;15.15;12.18;;;9.80;99.90;;;;;;5065284;28;20584;-80
2022/04/15 07:09:10;;;;;;;16.17;10.30;;;9.80;99.90;;;;;;5054150;28;20211;-78
2022/04/15 07:11:38;;;;;;;13.90;10.63;;;9.90;99.90;;;;;;5059491;28;20315;-77
2022/04/15 07:14:05;;;;;;;15.25;11.45;;;9.90;99.90;;;;;;5055761;28;20319;-76
2022/04/15 07:16:32;;;;;;;18.38;10.55;;;9.80;99.90;;;;;;5071415;28;20699;-72
2022/04/15 07:19:02;;;;;;;17.73;11.45;;;9.70;99.90;;;;;;5056730;28;20209;-76
2022/04/15 07:21:29;;;;;;;14.68;12.90;;;9.80;99.90;;;;;;5060938;28;20229;-74
2022/04/15 07:23:57;;;;;;;17.48;13.68;;;9.80;99.90;;;;;;5055681;28;20230;-74
2022/04/15 07:26:24;;;;;;;23.00;12.05;;;9.70;99.90;;;;;;5055299;28;20310;-74
2022/04/15 07:28:51;;;;;;;16.33;12.30;;;9.70;99.90;;;;;;5064350;28;20198;-72
2022/04/15 07:31:18;;;;;;;20.13;11.90;;;9.80;99.90;;;;;;5056565;28;20283;-72
2022/04/15 07:33:46;;;;;;;25.17;13.40;;;9.80;99.90;;;;;;5053941;28;20261;-72
2022/04/15 07:38:54;;;;;;;20.00;11.70;;;9.70;99.90;;;;;;5069140;28;20199;-69
2022/04/15 07:41:22;;;;;;;20.15;13.15;;;9.80;99.90;;;;;;5062165;28;20222;-71
2022/04/15 07:43:49;;;;;;;25.33;12.48;;;9.80;99.90;;;;;;5066530;28;20199;-74
2022/04/15 07:46:16;;;;;;;19.45;13.27;;;9.80;99.90;;;;;;5073514;28;20223;-71
2022/04/15 07:48:43;;;;;;;19.23;12.50;;;9.80;99.90;;;;;;5072713;28;20294;-72
2022/04/15 07:51:10;;;;;;;18.17;12.88;;;9.80;99.90;;;;;;5082131;28;20195;-75
2022/04/15 07:53:37;;;;;;;16.40;11.27;;;10.00;99.90;;;;;;5063767;28;20263;-74
2022/04/15 07:56:05;;;;;;;22.10;14.15;;;10.10;99.90;;;;;;5061805;28;20231;-77
2022/04/15 07:58:33;;;;;;;14.73;12.68;;;10.20;99.90;;;;;;5063856;28;20235;-76
2022/04/15 08:01:00;;;;;;;40.97;22.25;;;10.30;99.90;;;;;;5058600;28;20206;-75
2022/04/15 08:03:28;;;;;;;21.42;12.38;;;10.30;99.90;;;;;;5056481;28;20205;-74
2022/04/15 08:05:56;;;;;;;21.55;13.68;;;10.30;99.90;;;;;;5063168;28;20222;-73
2022/04/15 08:08:24;;;;;;;19.10;13.23;;;10.30;99.90;;;;;;5058002;28;20199;-76
2022/04/15 08:10:51;;;;;;;23.38;13.90;;;10.30;99.90;;;;;;5055221;28;20215;-76
2022/04/15 08:13:18;;;;;;;19.75;12.90;;;10.30;99.90;;;;;;5059153;28;20196;-73
2022/04/15 08:15:48;;;;;;;22.20;12.77;;;10.30;99.90;;;;;;5061135;28;20220;-74
2022/04/15 08:18:15;;;;;;;31.95;12.07;;;10.20;99.90;;;;;;5060553;28;20261;-75
2022/04/15 08:20:42;;;;;;;23.55;11.63;;;10.20;99.90;;;;;;5057802;28;20291;-75
2022/04/15 08:23:09;;;;;;;15.80;12.20;;;10.30;99.90;;;;;;5056178;28;20287;-75
2022/04/15 08:25:36;;;;;;;22.90;12.60;;;10.30;99.90;;;;;;5056324;28;20284;-76
2022/04/15 08:28:04;;;;;;;15.07;11.75;;;10.30;99.90;;;;;;5050413;28;20232;-77
2022/04/15 08:30:33;;;;;;;18.85;12.77;;;10.40;99.90;;;;;;5057845;28;20725;-76
2022/04/15 08:33:02;;;;;;;19.70;13.40;;;10.40;99.90;;;;;;5063877;28;20199;-76
2022/04/15 08:35:30;;;;;;;18.52;11.25;;;10.40;99.90;;;;;;5069695;28;20253;-75
2022/04/15 08:37:56;;;;;;;18.92;11.85;;;10.40;99.90;;;;;;5055218;28;20222;-75
2022/04/15 08:40:37;;;;;;;20.35;12.82;;;10.30;99.90;;;;;;5058461;28;20207;-74
2022/04/15 08:43:06;;;;;;;20.52;12.00;;;10.40;99.90;;;;;;5057190;28;20684;-76
2022/04/15 08:45:34;;;;;;;21.52;13.00;;;10.50;99.90;;;;;;5055236;28;20231;-75
2022/04/15 08:48:17;;;;;;;17.20;12.32;;;10.60;99.90;;;;;;5054875;28;20223;-75
2022/04/15 08:50:44;;;;;;;18.70;12.80;;;10.60;99.90;;;;;;5050504;28;20294;-76
2022/04/15 08:53:12;;;;;;;16.98;12.85;;;10.80;99.90;;;;;;5054191;28;20686;-76
2022/04/15 08:55:39;;;;;;;22.52;12.18;;;10.90;99.90;;;;;;5059661;28;20234;-76
2022/04/15 08:58:06;;;;;;;16.27;12.20;;;11.10;99.90;;;;;;5062462;28;20212;-76
2022/04/15 09:00:32;;;;;;;16.85;12.07;;;11.20;99.90;;;;;;5059680;28;20298;-77
2022/04/15 09:02:59;;;;;;;21.42;11.95;;;11.10;99.90;;;;;;5057285;28;20208;-74
2022/04/15 09:05:29;;;;;;;18.85;12.55;;;11.10;99.90;;;;;;5063995;28;20283;-75
2022/04/15 09:08:07;;;;;;;20.80;14.30;;;11.10;99.90;;;;;;5066546;28;20212;-76
2022/04/15 09:10:35;;;;;;;23.70;18.80;;;11.20;99.90;;;;;;5059983;28;20688;-76
2022/04/15 09:13:03;;;;;;;19.70;16.95;;;11.20;99.90;;;;;;5055079;28;20670;-77
2022/04/15 09:15:31;;;;;;;31.30;21.63;;;11.20;99.90;;;;;;5058741;28;20728;-75
2022/04/15 09:18:00;;;;;;;24.75;19.63;;;11.20;99.90;;;;;;5063910;28;20523;-76
2022/04/15 09:20:32;;;;;;;23.55;17.50;;;11.20;99.90;;;;;;5059203;28;20197;-75
2022/04/15 09:23:09;;;;;;;20.60;15.10;;;11.30;99.90;;;;;;5065296;28;20201;-76
2022/04/15 09:25:37;;;;;;;22.63;15.95;;;11.40;99.90;;;;;;5058250;28;20230;-76
2022/04/15 09:28:04;;;;;;;22.75;16.58;;;11.50;99.90;;;;;;5058940;28;20322;-76
2022/04/15 09:30:39;;;;;;;22.70;15.73;;;11.50;99.90;;;;;;5057324;28;20287;-76
2022/04/15 09:33:06;;;;;;;27.70;17.58;;;11.60;99.90;;;;;;5053705;28;20222;-76
2022/04/15 09:35:35;;;;;;;20.38;15.65;;;11.70;99.90;;;;;;5054580;28;20230;-76
2022/04/15 09:38:04;;;;;;;17.55;14.27;;;11.70;99.90;;;;;;5068617;28;20291;-75
2022/04/15 09:40:35;;;;;;;23.75;15.38;;;11.70;99.90;;;;;;5053932;28;20632;-75
2022/04/15 09:43:04;;;;;;;20.83;15.43;;;11.70;99.90;;;;;;5058994;28;20200;-75
2022/04/15 09:45:34;;;;;;;18.98;15.60;;;11.60;99.90;;;;;;5059248;28;20694;-76
2022/04/15 09:48:03;;;;;;;19.98;15.10;;;11.70;99.90;;;;;;5057818;28;20581;-76
2022/04/15 09:50:34;;;;;;;22.98;16.55;;;11.80;99.90;;;;;;5053809;28;20211;-76
2022/04/15 09:53:10;;;;;;;22.67;13.95;;;11.90;99.90;;;;;;5055261;28;20197;-76
2022/04/15 09:55:40;;;;;;;20.05;15.45;;;12.10;99.90;;;;;;5055179;28;20732;-77
2022/04/15 09:58:12;;;;;;;19.73;15.98;;;12.20;99.90;;;;;;5061938;28;20205;-76
2022/04/15 10:00:40;;;;;;;22.80;14.52;;;12.20;99.90;;;;;;5066346;28;20238;-78
2022/04/15 10:03:09;;;;;;;20.42;15.63;;;12.00;99.90;;;;;;5053947;28;20208;-77
2022/04/15 10:05:38;;;;;;;22.63;15.38;;;12.10;99.90;;;;;;5057696;28;20268;-77
2022/04/15 10:08:06;;;;;;;26.40;15.65;;;12.00;99.90;;;;;;5062367;28;20275;-77
2022/04/15 10:10:35;;;;;;;24.17;15.55;;;12.10;99.90;;;;;;5057872;28;20223;-77
2022/04/15 10:13:03;;;;;;;17.15;14.15;;;12.20;99.90;;;;;;5055114;28;20556;-77
2022/04/15 10:15:32;;;;;;;18.30;14.75;;;12.50;99.90;;;;;;5058988;28;20273;-77
2022/04/15 10:18:00;;;;;;;23.27;16.48;;;12.70;99.90;;;;;;5065146;28;20343;-77
2022/04/15 10:20:28;;;;;;;18.73;14.57;;;12.70;99.90;;;;;;5054334;28;20205;-76
2022/04/15 10:22:56;;;;;;;18.77;13.40;;;12.70;99.90;;;;;;5058239;28;20571;-77
2022/04/15 10:25:23;;;;;;;20.20;14.77;;;12.90;99.90;;;;;;5054439;28;20312;-77
2022/04/15 10:27:51;;;;;;;18.40;14.20;;;12.80;99.90;;;;;;5058825;28;20320;-78
2022/04/15 10:30:20;;;;;;;22.98;16.92;;;12.90;99.90;;;;;;5056637;28;20606;-77
2022/04/15 10:32:49;;;;;;;24.10;17.20;;;12.80;99.90;;;;;;5060213;28;20210;-77
2022/04/15 10:35:24;;;;;;;23.23;14.10;;;12.70;99.90;;;;;;5061717;28;20222;-77
2022/04/15 10:37:56;;;;;;;25.92;15.85;;;12.80;99.90;;;;;;5060359;28;20610;-77
2022/04/15 10:40:25;;;;;;;18.88;14.15;;;13.00;99.90;;;;;;5060043;28;20198;-78
2022/04/15 10:42:53;;;;;;;20.52;14.02;;;13.10;99.90;;;;;;5057609;28;20821;-76
2022/04/15 10:45:27;;;;;;;21.40;13.52;;;13.00;99.90;;;;;;5056191;28;20725;-76
2022/04/15 10:48:00;;;;;;;18.27;14.32;;;13.00;99.90;;;;;;5052718;28;20304;-76
2022/04/15 10:50:29;;;;;;;20.65;14.15;;;12.90;99.90;;;;;;5062134;28;20291;-75
2022/04/15 10:53:18;;;;;;;20.27;13.95;;;12.90;99.90;;;;;;5061116;28;20678;-78
2022/04/15 10:55:48;;;;;;;20.98;14.57;;;12.80;99.90;;;;;;5053254;28;20240;-77
2022/04/15 10:58:17;;;;;;;23.70;14.10;;;12.80;99.90;;;;;;5052624;28;20193;-76
2022/04/15 11:03:31;;;;;;;19.70;13.70;;;12.90;99.90;;;;;;5057833;28;20208;-77
2022/04/15 11:05:59;;;;;;;20.52;15.00;;;13.10;99.90;;;;;;5054185;28;20229;-78
2022/04/15 11:08:28;;;;;;;21.15;12.80;;;13.00;99.90;;;;;;5061522;28;20260;-77
2022/04/15 11:11:05;;;;;;;17.98;12.35;;;12.90;99.90;;;;;;5058177;28;20327;-79
2022/04/15 11:14:03;;;;;;;17.13;13.15;;;13.00;99.90;;;;;;5060392;28;20288;-77
2022/04/15 11:16:41;;;;;;;18.38;12.40;;;13.30;99.90;;;;;;5062340;28;20218;-77
2022/04/15 11:19:11;;;;;;;17.25;12.20;;;13.30;99.90;;;;;;5063516;28;20203;-77
2022/04/15 11:21:39;;;;;;;14.52;11.55;;;13.40;99.90;;;;;;5063326;28;20234;-75
2022/04/15 11:24:08;;;;;;;18.48;13.77;;;13.40;99.90;;;;;;5060882;28;20241;-77
2022/04/15 11:26:37;;;;;;;13.50;11.43;;;13.40;99.90;;;;;;5056109;28;20202;-78
2022/04/15 11:29:07;;;;;;;17.52;13.80;;;13.20;99.90;;;;;;5059868;28;20313;-77
2022/04/15 11:31:36;;;;;;;14.27;11.95;;;13.20;99.90;;;;;;5061865;28;20540;-78
2022/04/15 11:34:07;;;;;;;18.10;13.15;;;13.30;99.90;;;;;;5067580;28;20230;-77
2022/04/15 11:36:37;;;;;;;14.80;12.38;;;13.20;99.90;;;;;;5057300;28;20234;-77
2022/04/15 11:39:05;;;;;;;17.75;14.25;;;13.20;99.90;;;;;;5056628;28;20248;-78
2022/04/15 11:41:33;;;;;;;22.60;15.50;;;13.40;99.90;;;;;;5069319;28;20512;-78
2022/04/15 11:44:01;;;;;;;21.98;16.08;;;13.40;99.90;;;;;;5059270;28;20226;-78
2022/04/15 11:46:39;;;;;;;21.98;17.88;;;13.20;99.90;;;;;;5071208;28;20285;-76
2022/04/15 11:49:13;;;;;;;18.10;13.80;;;13.10;99.90;;;;;;5060306;28;20684;-78
2022/04/15 11:51:43;;;;;;;19.27;14.82;;;12.80;99.90;;;;;;5056626;28;20206;-78
2022/04/15 11:54:10;;;;;;;21.30;14.23;;;12.80;99.90;;;;;;5064248;28;20654;-79
2022/04/15 11:56:37;;;;;;;18.38;16.35;;;12.90;99.90;;;;;;5076187;28;20228;-78
2022/04/15 11:59:04;;;;;;;25.55;18.65;;;13.00;99.90;;;;;;5052148;28;20707;-78
2022/04/15 12:01:33;;;;;;;25.13;21.92;;;12.80;99.90;;;;;;5056661;28;20217;-78
2022/04/15 12:04:00;;;;;;;22.95;20.00;;;12.80;99.90;;;;;;5062014;28;20228;-78
2022/04/15 12:06:29;;;;;;;19.30;16.95;;;12.80;99.90;;;;;;5072337;28;20209;-78
2022/04/15 12:08:57;;;;;;;21.35;18.13;;;13.00;99.90;;;;;;5065063;28;20222;-79
2022/04/15 12:11:26;;;;;;;19.58;15.85;;;13.20;99.90;;;;;;5062998;28;20210;-78
2022/04/15 12:13:56;;;;;;;21.52;14.30;;;13.50;99.90;;;;;;5059842;28;20304;-78
2022/04/15 12:16:23;;;;;;;15.80;13.05;;;13.70;99.90;;;;;;5058430;28;20234;-79
2022/04/15 12:18:53;;;;;;;19.55;12.95;;;14.10;99.90;;;;;;5057282;28;20199;-79
2022/04/15 12:21:20;;;;;;;20.05;15.10;;;14.50;99.90;;;;;;5054451;28;20231;-79
2022/04/15 12:24:07;;;;;;;21.55;15.13;;;14.70;99.90;;;;;;5060309;28;20227;-80
2022/04/15 12:26:42;;;;;;;17.10;13.27;;;14.70;99.90;;;;;;5058221;28;20200;-78
2022/04/15 12:31:53;;;;;;;18.42;14.25;;;14.60;99.90;;;;;;5059401;28;20546;-78
2022/04/15 12:34:32;;;;;;;18.95;14.52;;;14.50;99.90;;;;;;5062123;28;20311;-78
2022/04/15 12:36:59;;;;;;;20.70;14.80;;;14.40;99.90;;;;;;5066968;28;20207;-79
2022/04/15 12:39:26;;;;;;;19.42;14.80;;;14.40;99.90;;;;;;5069958;28;20212;-80
2022/04/15 12:41:53;;;;;;;17.88;15.18;;;14.30;99.90;;;;;;5061053;28;20729;-77
2022/04/15 12:44:23;;;;;;;20.48;14.60;;;14.30;99.90;;;;;;5048112;28;20310;-80
2022/04/15 12:47:00;;;;;;;20.25;13.95;;;14.10;99.90;;;;;;5064881;28;20203;-79
2022/04/15 12:49:33;;;;;;;20.05;14.45;;;13.90;99.90;;;;;;5062797;28;20242;-79
2022/04/15 12:52:14;;;;;;;22.17;14.15;;;13.90;99.90;;;;;;5062105;28;20203;-79